Accueil
METAR-TAF:

METAR-TAF

Aéroports :

Aéroport international de Khartoum

Khartoum, Soudan

latitude: 15-36N, longitude: 032-33E, altitude: 382 m

Observation

Le bulletin a été fait il y a 12 minutes, à 21:00 UTC
Vent 10 kt de nord/nord-ouest
Température 25°C
Humidité 21%
Pression 1014 hPa
Visibilité 10 km ou plus
pas de nuages en-dessous de 1500 mètres et pas de cumulonimbus.

METAR: HSSS 182100Z 34010KT CAVOK 25/01 Q1014 NOSIG

Heure: 00:12 (21:12 UTC)

Prévision

Le bulletin a été fait il y a 4 heures et 12 minutes, à 17:00 UTC
Prévision valable du 18 à 18 UTC au 19 à 24 UTC
Vent 10 kt de nord/nord-ouest
Visibilité 10 km ou plus
pas de nuages en-dessous de 1500 mètres et pas de cumulonimbus.
Temporairement
du 19 à 04 UTC au 19 à 07 UTC
Vent 10 kt de nord/nord-est avec des rafales jusqu'à 20 kt
Visibilité: 6000 m

TAF: HSSS 181700Z 1818/1924 33010KT CAVOK TEMPO 1904/1907 02010G20KT 6000

Observations et prévisions météorologiques de plus de 4000 aéroports (messages METAR et TAF).

Les stations disponibles sont représentées par des disques jaunes et rouges sur la carte.

Passer la souris dessus pour voir le nom de la station.

Cliquer dessus pour voir les observations et prévisions météorologiques.

Pour changer de carte: cliquez sur les boutons verts avec une croix noire pour zoomer, sur le bouton vert avec un tiret pour effectuer un zoom arrière, ou sur les flèches vertes pour les cartes adjacentes.


METAR-TAF: